Time;durP1;ratioP1;P1;durP2;ratioP2;P2;SDS_P1;SDS_P2;PMS_P1;PMS_P2;Temp;Humidity;BMP_temperature;BMP_pressure;BME280_temperature;BME280_humidity;BME280_pressure;Samples;Min_cycle;Max_cycle;Signal;HPM_P1;HPM_P2
2023/11/05 00:04:02;;;;;;;;;;;8.80;99.90;;;;;;21374159;27;19926;-80
2023/11/05 00:14:03;;;;;;;;;;;8.80;99.90;;;;;;21366928;27;19915;-80
2023/11/05 00:24:04;;;;;;;;;;;8.70;99.90;;;;;;21370217;27;19918;-78
2023/11/05 00:34:05;;;;;;;;;;;8.70;99.90;;;;;;21364642;27;19915;-79
2023/11/05 00:44:05;;;;;;;;;;;9.30;99.90;;;;;;21346122;27;19911;-81
2023/11/05 00:54:06;;;;;;;;;;;9.20;99.90;;;;;;21343288;27;19922;-80
2023/11/05 01:04:07;;;;;;;;;;;8.90;99.90;;;;;;21349024;27;19915;-80
2023/11/05 01:14:07;;;;;;;;;;;8.80;99.90;;;;;;21344688;27;20002;-80
2023/11/05 01:24:08;;;;;;;;;;;8.90;99.90;;;;;;21353366;27;20270;-80
2023/11/05 01:34:08;;;;;;;;;;;9.00;99.90;;;;;;21350424;27;19915;-80
2023/11/05 01:44:09;;;;;;;;;;;8.80;99.90;;;;;;21368945;27;19934;-80
2023/11/05 01:54:12;;;;;;;;;;;8.90;99.90;;;;;;21369965;27;19954;-80
2023/11/05 02:04:13;;;;;;;;;;;8.60;99.90;;;;;;21379622;27;19911;-80
2023/11/05 02:14:13;;;;;;;;;;;8.80;99.90;;;;;;21360351;27;19915;-79
2023/11/05 02:24:14;;;;;;;;;;;9.20;99.90;;;;;;21351892;27;19911;-79
2023/11/05 02:34:15;;;;;;;;;;;8.80;99.90;;;;;;21364223;27;19915;-80
2023/11/05 02:44:17;;;;;;;;;;;9.00;99.90;;;;;;21372367;27;19954;-80
2023/11/05 02:54:17;;;;;;;;;;;9.70;99.90;;;;;;21361879;27;20372;-80
2023/11/05 03:04:18;;;;;;;;;;;9.70;99.90;;;;;;21361004;27;19911;-80
2023/11/05 03:14:19;;;;;;;;;;;9.50;99.90;;;;;;21379321;27;19919;-79
2023/11/05 03:24:20;;;;;;;;;;;9.40;99.90;;;;;;21365218;27;19922;-79
2023/11/05 03:34:21;;;;;;;;;;;10.50;99.90;;;;;;21369729;27;19954;-79
2023/11/05 03:44:21;;;;;;;;;;;11.20;99.90;;;;;;21391040;27;19933;-80
2023/11/05 03:54:22;;;;;;;;;;;11.40;99.90;;;;;;21386399;27;19921;-80
2023/11/05 04:04:23;;;;;;;;;;;11.40;99.90;;;;;;21411233;27;20179;-80
2023/11/05 04:14:23;;;;;;;;;;;11.30;99.90;;;;;;21411903;27;19915;-80
2023/11/05 04:24:24;;;;;;;;;;;11.30;99.90;;;;;;21400789;27;19918;-79
2023/11/05 04:34:27;;;;;;;;;;;11.10;99.90;;;;;;21412587;27;19921;-81
2023/11/05 04:44:28;;;;;;;;;;;11.30;99.90;;;;;;21424187;27;20701;-80
2023/11/05 04:54:28;;;;;;;;;;;11.20;99.90;;;;;;21412470;27;19922;-79
2023/11/05 05:04:29;;;;;;;;;;;11.30;99.90;;;;;;21394575;27;19911;-81
2023/11/05 05:14:30;;;;;;;;;;;11.50;99.90;;;;;;21401508;27;20270;-80
2023/11/05 05:24:30;;;;;;;;;;;11.50;99.90;;;;;;21385729;27;19932;-79
2023/11/05 05:34:31;;;;;;;;;;;11.30;99.90;;;;;;21414743;27;20350;-80
2023/11/05 05:44:33;;;;;;;;;;;11.30;99.90;;;;;;21414283;27;19910;-79
2023/11/05 05:54:33;;;;;;;;;;;11.40;99.90;;;;;;21433913;27;20348;-80
2023/11/05 06:04:37;;;;;;;;;;;11.20;99.90;;;;;;21397476;27;19951;-79
2023/11/05 06:14:40;;;;;;;;;;;11.30;99.90;;;;;;21450760;27;20152;-80
2023/11/05 06:24:41;;;;;;;;;;;11.30;99.90;;;;;;21421907;27;19965;-81
2023/11/05 06:34:42;;;;;;;;;;;11.50;99.90;;;;;;21387721;27;19922;-79
2023/11/05 06:44:42;;;;;;;;;;;11.30;99.90;;;;;;21385349;27;20304;-80
2023/11/05 06:54:43;;;;;;;;;;;11.10;99.90;;;;;;21389888;27;19965;-78
2023/11/05 07:04:44;;;;;;;;;;;9.50;99.90;;;;;;21397881;27;19933;-78
2023/11/05 07:14:44;;;;;;;;;;;9.10;99.90;;;;;;21350546;27;19919;-79
2023/11/05 07:24:45;;;;;;;;;;;8.90;99.90;;;;;;21361798;27;20441;-80
2023/11/05 07:34:46;;;;;;;;;;;8.90;99.90;;;;;;21310417;27;19922;-80
2023/11/05 07:44:47;;;;;;;;;;;8.90;99.90;;;;;;21380328;27;19910;-78
2023/11/05 07:54:47;;;;;;;;;;;8.90;99.90;;;;;;21377968;27;19914;-79
2023/11/05 08:04:48;;;;;;;;;;;8.80;99.90;;;;;;21352062;27;20105;-79
2023/11/05 08:14:49;;;;;;;;;;;8.50;99.90;;;;;;21369397;27;19915;-79
2023/11/05 08:24:51;;;;;;;;;;;8.40;99.90;;;;;;21362353;27;19924;-79
2023/11/05 08:34:53;;;;;;;;;;;8.40;99.90;;;;;;21358358;27;19915;-79
2023/11/05 08:44:53;;;;;;;;;;;8.40;99.90;;;;;;21395186;27;20064;-78
2023/11/05 08:54:54;;;;;;;;;;;8.40;99.90;;;;;;21377513;27;19967;-79
2023/11/05 09:04:55;;;;;;;;;;;8.70;99.90;;;;;;21359671;27;20383;-78
2023/11/05 09:14:56;;;;;;;;;;;9.50;99.90;;;;;;21380266;27;19954;-78
2023/11/05 09:25:03;;;;;;;;;;;9.50;99.90;;;;;;21385210;27;19953;-78
2023/11/05 09:35:04;;;;;;;;;;;9.70;99.90;;;;;;21413481;27;19922;-79
2023/11/05 09:45:05;;;;;;;;;;;9.80;99.90;;;;;;21373824;27;20001;-78
2023/11/05 09:55:06;;;;;;;;;;;9.80;99.90;;;;;;21376530;27;19922;-80
2023/11/05 10:05:07;;;;;;;;;;;9.80;99.90;;;;;;21380386;27;19912;-80
2023/11/05 10:15:08;;;;;;;;;;;10.00;99.90;;;;;;21345978;27;20404;-80
2023/11/05 10:25:20;;;;;;;;;;;10.20;99.90;;;;;;21364250;27;19911;-81
2023/11/05 10:35:23;;;;;;;;;;;10.40;99.90;;;;;;21386263;27;20405;-80
2023/11/05 10:45:25;;;;;;;;;;;11.00;99.90;;;;;;21397250;27;19911;-78
2023/11/05 10:55:32;;;;;;;;;;;11.40;99.90;;;;;;21378794;27;19921;-80
2023/11/05 11:05:43;;;;;;;;;;;12.00;99.90;;;;;;21375905;27;19963;-80
2023/11/05 11:15:44;;;;;;;;;;;12.10;99.90;;;;;;21356713;27;19919;-79
2023/11/05 11:26:01;;;;;;;;;;;12.20;99.90;;;;;;21345195;27;20010;-78
2023/11/05 11:36:07;;;;;;;;;;;12.40;99.90;;;;;;21348852;27;19915;-80
2023/11/05 11:46:08;;;;;;;;;;;12.70;99.90;;;;;;21332812;27;19911;-81
2023/11/05 11:56:09;;;;;;;;;;;12.70;99.90;;;;;;21336776;27;19922;-79
2023/11/05 12:06:10;;;;;;;;;;;12.90;99.90;;;;;;21345825;27;20351;-81
2023/11/05 12:16:11;;;;;;;;;;;12.90;99.90;;;;;;21351986;27;19915;-81
2023/11/05 12:26:12;;;;;;;;;;;12.80;99.90;;;;;;21374693;27;19934;-80
2023/11/05 12:36:13;;;;;;;;;;;12.80;99.90;;;;;;21383556;27;19915;-81
2023/11/05 12:46:13;;;;;;;;;;;12.80;99.90;;;;;;21348155;27;19989;-80
2023/11/05 12:56:16;;;;;;;;;;;12.90;99.90;;;;;;21372245;27;19946;-80
2023/11/05 13:06:20;;;;;;;;;;;12.90;99.90;;;;;;21339625;27;19918;-79
2023/11/05 13:16:21;;;;;;;;;;;13.00;99.90;;;;;;21351698;27;19919;-80
2023/11/05 13:26:22;;;;;;;;;;;12.80;99.90;;;;;;21328771;27;19917;-80
2023/11/05 13:36:23;;;;;;;;;;;12.90;99.90;;;;;;21335461;27;19915;-77
2023/11/05 13:46:23;;;;;;;;;;;13.30;99.90;;;;;;21312699;27;19911;-78
2023/11/05 13:56:24;;;;;;;;;;;13.10;99.90;;;;;;21314469;27;19922;-79
2023/11/05 14:06:25;;;;;;;;;;;13.00;99.90;;;;;;21353935;27;19945;-81
2023/11/05 14:16:25;;;;;;;;;;;12.80;99.90;;;;;;21356667;27;19954;-81
2023/11/05 14:26:26;;;;;;;;;;;12.30;99.90;;;;;;21353197;27;20010;-80
2023/11/05 14:36:27;;;;;;;;;;;12.30;99.90;;;;;;21372651;27;19923;-79
2023/11/05 14:46:27;;;;;;;;;;;12.10;99.90;;;;;;21379984;27;19933;-79
2023/11/05 14:56:28;;;;;;;;;;;12.00;99.90;;;;;;21321889;27;19922;-79
2023/11/05 15:06:29;;;;;;;;;;;12.10;99.90;;;;;;21361377;27;20276;-78
2023/11/05 15:16:32;;;;;;;;;;;11.90;99.90;;;;;;21354392;27;19919;-79
2023/11/05 15:26:33;;;;;;;;;;;11.90;99.90;;;;;;21335179;27;20401;-79
2023/11/05 15:36:33;;;;;;;;;;;11.90;99.90;;;;;;21327726;27;19915;-79
2023/11/05 15:46:34;;;;;;;;;;;11.90;99.90;;;;;;21326396;27;19911;-78
2023/11/05 15:56:35;;;;;;;;;;;11.80;99.90;;;;;;21327263;27;20453;-79
2023/11/05 16:06:36;;;;;;;;;;;11.70;99.90;;;;;;21347367;27;19911;-79
2023/11/05 16:16:36;;;;;;;;;;;11.60;99.90;;;;;;21328218;27;19915;-79
2023/11/05 16:26:37;;;;;;;;;;;11.50;99.90;;;;;;21282770;27;20457;-79
2023/11/05 16:36:39;;;;;;;;;;;11.50;99.90;;;;;;21327116;27;19915;-78
2023/11/05 16:46:40;;;;;;;;;;;11.50;99.90;;;;;;21343549;27;20358;-78
2023/11/05 16:56:49;;;;;;;;;;;11.40;99.90;;;;;;21321982;27;19937;-78
2023/11/05 17:06:50;;;;;;;;;;;11.40;99.90;;;;;;21325122;27;19910;-79
2023/11/05 17:16:50;;;;;;;;;;;11.40;99.90;;;;;;21350220;27;19990;-78
2023/11/05 17:26:52;;;;;;;;;;;11.30;99.90;;;;;;21310060;27;19915;-79
2023/11/05 17:36:52;;;;;;;;;;;11.40;99.90;;;;;;21331759;27;20329;-78
2023/11/05 17:46:53;;;;;;;;;;;11.40;99.90;;;;;;21362498;27;19915;-79
2023/11/05 17:56:54;;;;;;;;;;;11.30;99.90;;;;;;21353154;27;19915;-79
2023/11/05 18:06:54;;;;;;;;;;;11.50;99.90;;;;;;21349908;27;19911;-78
2023/11/05 18:16:55;;;;;;;;;;;11.50;99.90;;;;;;21317875;27;19922;-78
2023/11/05 18:26:56;;;;;;;;;;;11.40;99.90;;;;;;21302515;27;19911;-80
2023/11/05 18:36:56;;;;;;;;;;;11.40;99.90;;;;;;21354832;27;19923;-78
2023/11/05 18:46:57;;;;;;;;;;;11.40;99.90;;;;;;21348903;27;19925;-79
2023/11/05 18:56:58;;;;;;;;;;;11.40;99.90;;;;;;21350360;27;19915;-79
2023/11/05 19:06:58;;;;;;;;;;;11.50;99.90;;;;;;21339128;27;19918;-79
2023/11/05 19:16:59;;;;;;;;;;;11.30;99.90;;;;;;21338545;27;19916;-79
2023/11/05 19:26:59;;;;;;;;;;;11.20;99.90;;;;;;21338836;27;19918;-78
2023/11/05 19:37:00;;;;;;;;;;;11.10;99.90;;;;;;21333087;27;19915;-79
2023/11/05 19:47:01;;;;;;;;;;;11.20;99.90;;;;;;21314033;27;19911;-80
2023/11/05 19:57:02;;;;;;;;;;;11.10;99.90;;;;;;21326909;27;19919;-81
2023/11/05 20:07:02;;;;;;;;;;;11.00;99.90;;;;;;21327868;27;20044;-79
2023/11/05 20:17:03;;;;;;;;;;;10.90;99.90;;;;;;21345471;27;19915;-80
2023/11/05 20:27:04;;;;;;;;;;;10.80;99.90;;;;;;21330740;27;19915;-81
2023/11/05 20:37:06;;;;;;;;;;;10.80;99.90;;;;;;21259009;27;19920;-80
2023/11/05 20:47:06;;;;;;;;;;;10.70;99.90;;;;;;21258629;27;19967;-80
2023/11/05 20:57:07;;;;;;;;;;;10.70;99.90;;;;;;21275699;27;19915;-80
2023/11/05 21:07:09;;;;;;;;;;;10.70;99.90;;;;;;21288502;27;19912;-78
2023/11/05 21:17:09;;;;;;;;;;;10.70;99.90;;;;;;21256679;27;20415;-78
2023/11/05 21:27:10;;;;;;;;;;;10.20;99.90;;;;;;21181166;27;1811888;-78
2023/11/05 21:37:11;;;;;;;;;;;9.70;99.90;;;;;;21200762;28;19950;-77
2023/11/05 21:47:12;;;;;;;;;;;9.50;99.90;;;;;;21197314;28;19947;-77
2023/11/05 21:57:13;;;;;;;;;;;9.20;99.90;;;;;;21197480;28;19916;-77
2023/11/05 22:07:14;;;;;;;;;;;9.00;99.90;;;;;;21196390;28;19994;-79
2023/11/05 22:17:14;;;;;;;;;;;9.00;99.90;;;;;;21197230;28;19962;-78
2023/11/05 22:27:15;;;;;;;;;;;9.00;99.90;;;;;;21180959;27;19912;-78
2023/11/05 22:37:16;;;;;;;;;;;9.10;99.90;;;;;;21214257;27;19922;-77
2023/11/05 22:47:17;;;;;;;;;;;9.10;99.90;;;;;;21210202;27;19911;-78
2023/11/05 22:57:17;;;;;;;;;;;9.00;99.90;;;;;;21206235;27;19916;-77
2023/11/05 23:07:18;;;;;;;;;;;8.80;99.90;;;;;;21209660;27;19969;-77
2023/11/05 23:17:19;;;;;;;;;;;8.90;99.90;;;;;;21195874;27;19916;-77
2023/11/05 23:27:19;;;;;;;;;;;8.80;99.90;;;;;;21211246;27;19922;-77
2023/11/05 23:37:20;;;;;;;;;;;8.70;99.90;;;;;;21278922;27;19919;-77
2023/11/05 23:47:21;;;;;;;;;;;8.70;99.90;;;;;;21258012;27;20327;-77
2023/11/05 23:57:21;;;;;;;;;;;8.60;99.90;;;;;;21262426;27;19933;-78
